Salt Lake City, Utah
Current Conditions -  °F | °C
As of 4:53 AM on Sunday 23 Nov 2014 (Local Time) from KSLC Reporting Station
Overcast Overcast  
Wind Chill: 28°   Ceiling: 4100
Heat Index: 34°   Visibility: 10mi
Dew Point: 30°   Wind: 7mph
Humidity: 85%   Direction: 10°N
Pressure: 30.06"   Gusts: NA
Location:  40.76°N, 111.88°W
Report Text: KSLC 231153Z 01006KT 10SM BKN041 OVC060 01/M01 A3006 RMK AO2 PK WND 30032/1120 SNB31E46 SLP175 SH DSNT NE-SE AND SW AND NW-N P0000 60000 70041 T00111011 10044 20006 53023
Loading
Personal Weather Stations






























Interactive Weather Map New forecast layout! Learn more

10-Day Weather Forecast

Advertisements
Track Severe Weather on mobile